Svitzer Stanlow — MLNF7 — position and weather

sailwx.info

Track history (hours):
 
Tides and Currents Weather Stations Pressure Air Temp Water Temp Dewpoint Dewpoint Depression Visibility Wind Speed Wind Dir Waves Ship Positions

Svitzer Stanlow

Last reported at 2017-Jan-20 23:33 UTC. Time now 2017-Jan-21 00:17 UTC.
Position N 53°23' W 003°00'.

Length 39 m.

Type: Tug. MMSI: 235010620.

Date/timePositionNaut miles runAvg speedWind from/ knotsBaromVisibWave heightAir tempDewpointWater temp
2017-Jan-20 23:33N 53°23' W 003°00'0 0.0
2017-Jan-20 22:33N 53°23' W 003°00'0 0.0
2017-Jan-20 21:33N 53°23' W 003°00'0 0.0
2017-Jan-20 20:33N 53°23' W 003°00'0 0.0
2017-Jan-20 19:33N 53°23' W 003°00'0 0.0
2017-Jan-20 18:33N 53°23' W 003°00'0 0.0
2017-Jan-20 17:33N 53°23' W 003°00'0 0.0
2017-Jan-20 16:24N 53°23' W 003°00'0 0.0
2017-Jan-20 15:33N 53°23' W 003°00'0 0.0
2017-Jan-20 14:33N 53°23' W 003°00'0 0.0
2017-Jan-20 13:33N 53°23' W 003°00'0 0.1
2017-Jan-20 12:33N 53°23' W 002°60'0 0.0
2017-Jan-20 11:33N 53°23' W 002°60'0 0.0
2017-Jan-20 10:33N 53°23' W 002°60'0 0.0
2017-Jan-20 09:24N 53°23' W 002°60'0 0.0
2017-Jan-20 08:30N 53°23' W 002°60'0 0.0
2017-Jan-20 07:27N 53°23' W 002°60'0 0.0
2017-Jan-20 06:33N 53°23' W 002°60'0 0.1
2017-Jan-20 05:29N 53°23' W 002°60'4 3.9
2017-Jan-20 04:33N 53°26' W 003°01'8 7.9
2017-Jan-20 03:33N 53°32' W 003°11'3 3.2
2017-Jan-20 02:33N 53°32' W 003°17'6 6.4
2017-Jan-20 01:32N 53°31' W 003°06'9 8.5
2017-Jan-20 00:30N 53°23' W 002°60'0 0.0
2017-Jan-19 23:33N 53°23' W 002°60'0 0.0
2017-Jan-19 22:33N 53°23' W 002°60'0 0.0
2017-Jan-19 21:33N 53°23' W 002°60'0 0.0
2017-Jan-19 20:33N 53°23' W 002°60'0 0.0
2017-Jan-19 19:33N 53°23' W 002°60'0 0.0
2017-Jan-19 18:30N 53°23' W 002°60'0 0.0
2017-Jan-19 17:33N 53°23' W 002°60'0 0.0
2017-Jan-19 16:33N 53°23' W 002°60'0 0.0
2017-Jan-19 15:27N 53°23' W 002°60'0 0.0
2017-Jan-19 14:33N 53°23' W 002°60'0 0.0
2017-Jan-19 13:30N 53°23' W 002°60'0 0.0
2017-Jan-19 12:32N 53°23' W 002°60'0 0.0
2017-Jan-19 11:29N 53°23' W 002°60'0 0.0
2017-Jan-19 10:29N 53°23' W 002°60'0 0.0
2017-Jan-19 09:29N 53°23' W 002°60'0 0.0
2017-Jan-19 08:32N 53°23' W 002°60'0 0.0
2017-Jan-19 07:29N 53°23' W 002°60'0 0.0
2017-Jan-19 06:29N 53°23' W 002°60'0 0.0
2017-Jan-19 05:32N 53°23' W 002°60'0 0.0
2017-Jan-19 04:32N 53°23' W 002°60'1 0.5
2017-Jan-19 03:32N 53°23' W 003°00'5 4.9
2017-Jan-19 02:33N 53°28' W 003°03'9 9.2
2017-Jan-19 01:33N 53°32' W 003°17'9 8.7
2017-Jan-19 00:33N 53°28' W 003°03'4 4.2
2017-Jan-18 23:31N 53°24' W 002°60'0 0.0
2017-Jan-18 22:31N 53°24' W 002°60'0 0.0
2017-Jan-18 21:31N 53°24' W 002°60'0 0.0
2017-Jan-18 20:31N 53°24' W 002°60'0 0.0
2017-Jan-18 19:31N 53°24' W 002°60'0 0.0
2017-Jan-18 18:31N 53°24' W 002°60'0 0.0
2017-Jan-18 17:31N 53°24' W 002°60'0 0.0
2017-Jan-18 16:28N 53°24' W 002°60'3 2.7
2017-Jan-18 15:26N 53°27' W 003°01'1 0.6
2017-Jan-18 14:32N 53°28' W 003°01'0 0.3
2017-Jan-18 13:22N 53°28' W 003°01'1 1.4
2017-Jan-18 12:32N 53°27' W 003°00'0 0.2
2017-Jan-18 11:30N 53°26' W 003°00'1 0.8
2017-Jan-18 10:27N 53°25' W 003°00'0 0.0
2017-Jan-18 09:33N 53°25' W 003°00'0 0.0
2017-Jan-18 08:33N 53°25' W 003°00'0 0.0
2017-Jan-18 07:33N 53°25' W 003°00'0 0.0
2017-Jan-18 06:33N 53°25' W 003°00'0 0.0
2017-Jan-18 05:33N 53°25' W 003°00'0 0.0
2017-Jan-18 04:32N 53°25' W 003°00'0 0.0
2017-Jan-18 03:32N 53°25' W 003°00'0 0.0
2017-Jan-18 02:32N 53°25' W 003°00'2 1.8
2017-Jan-18 01:32N 53°27' W 003°01'1 0.9
2017-Jan-18 00:33N 53°26' W 003°00'1 0.9
2017-Jan-17 23:30N 53°25' W 003°00'0 0.0
2017-Jan-17 22:30N 53°25' W 003°00'0 0.0
2017-Jan-17 21:30N 53°25' W 003°00'0 0.0
2017-Jan-17 20:30N 53°25' W 003°00'0 0.0
2017-Jan-17 19:30N 53°25' W 003°00'0 0.0
2017-Jan-17 18:27N 53°25' W 003°00'0 0.0
2017-Jan-17 17:30N 53°25' W 003°00'0 0.0
2017-Jan-17 16:33N 53°25' W 003°00'0 0.0
2017-Jan-17 15:33N 53°25' W 003°00'0 0.0
2017-Jan-17 14:30N 53°25' W 003°00'0 0.0
2017-Jan-17 13:33N 53°25' W 003°00'0 0.0
2017-Jan-17 12:31N 53°25' W 003°00'0 0.3
2017-Jan-17 11:33N 53°26' W 003°00'2 1.7
2017-Jan-17 10:33N 53°27' W 003°01'0 0.3
2017-Jan-17 09:31N 53°27' W 003°01'0 0.0
2017-Jan-17 08:31N 53°27' W 003°01'0 0.0
2017-Jan-17 07:31N 53°27' W 003°01'0 0.0
2017-Jan-17 06:28N 53°27' W 003°01'0 0.0
2017-Jan-17 05:31N 53°27' W 003°01'0 0.0
2017-Jan-17 04:31N 53°27' W 003°01'0 0.0
2017-Jan-17 03:28N 53°27' W 003°01'0 0.0
2017-Jan-17 02:31N 53°27' W 003°01'0 0.0
2017-Jan-17 01:31N 53°27' W 003°01'0 0.3
2017-Jan-17 00:32N 53°27' W 003°01'0 0.1
2017-Jan-16 23:33N 53°27' W 003°01'2 1.6
2017-Jan-16 22:33N 53°26' W 003°00'0 0.1
2017-Jan-16 21:31N 53°25' W 003°00'0 0.0
2017-Jan-16 20:31N 53°25' W 003°00'0 0.0
2017-Jan-16 19:28N 53°25' W 003°00'0 0.0
2017-Jan-16 18:31N 53°25' W 003°00'0 0.0
2017-Jan-16 17:31N 53°25' W 003°00'0 0.0
2017-Jan-16 16:31N 53°25' W 003°00'0 0.0
2017-Jan-16 15:31N 53°25' W 003°00'0 0.0
2017-Jan-16 14:25N 53°25' W 003°00'0 0.0
2017-Jan-16 13:31N 53°25' W 003°00'0 0.0
2017-Jan-16 12:31N 53°25' W 003°00'0 0.0
2017-Jan-16 11:34N 53°25' W 003°00'0 0.0
2017-Jan-16 10:34N 53°25' W 003°00'0 0.0
2017-Jan-16 09:33N 53°25' W 003°00'0 0.0
2017-Jan-16 08:33N 53°25' W 003°00'0 0.0
2017-Jan-16 07:33N 53°25' W 003°00'0 0.0
2017-Jan-16 06:30N 53°25' W 003°00'0 0.0
2017-Jan-16 05:33N 53°25' W 003°00'0 0.0
2017-Jan-16 04:30N 53°25' W 003°00'0 0.0
2017-Jan-16 03:33N 53°25' W 003°00'0 0.0
2017-Jan-16 02:27N 53°25' W 003°00'0 0.0
2017-Jan-16 01:33N 53°25' W 003°00'0 0.0
2017-Jan-16 00:33N 53°25' W 003°00'0 0.0
2017-Jan-15 23:33N 53°25' W 003°00'2 1.6
2017-Jan-15 22:33N 53°27' W 003°01'3 2.8
2017-Jan-15 21:33N 53°24' W 003°00'1 1.4
2017-Jan-15 20:32N 53°23' W 003°00'0 0.0
2017-Jan-15 19:23N 53°23' W 003°00'0 0.0
2017-Jan-15 18:32N 53°23' W 003°00'0 0.0
2017-Jan-15 17:32N 53°23' W 003°00'0 0.0
2017-Jan-15 16:32N 53°23' W 003°00'0 0.0
2017-Jan-15 15:23N 53°23' W 003°00'0 0.0
2017-Jan-15 14:29N 53°23' W 003°00'0 0.0
2017-Jan-15 13:32N 53°23' W 003°00'0 0.0
2017-Jan-15 12:32N 53°23' W 003°00'0 0.0
2017-Jan-15 11:25N 53°23' W 003°00'0 0.0
2017-Jan-15 10:31N 53°23' W 003°00'0 0.0
2017-Jan-15 09:31N 53°23' W 003°00'0 0.0
2017-Jan-15 08:28N 53°23' W 003°00'0 0.0
2017-Jan-15 07:31N 53°23' W 003°00'0 0.0
2017-Jan-15 06:28N 53°23' W 003°00'0 0.0
2017-Jan-15 05:31N 53°23' W 003°00'0 0.0
2017-Jan-15 04:31N 53°23' W 003°00'0 0.0
2017-Jan-15 03:31N 53°23' W 003°00'0 0.0
2017-Jan-15 02:28N 53°23' W 003°00'0 0.0
2017-Jan-15 01:31N 53°23' W 003°00'0 0.0
2017-Jan-15 00:31N 53°23' W 003°00'0 0.0
2017-Jan-14 23:25N 53°23' W 003°00'0 0.0
2017-Jan-14 22:31N 53°23' W 003°00'0 0.0
2017-Jan-14 21:28N 53°23' W 003°00'0 0.0
2017-Jan-14 20:31N 53°23' W 003°00'0 0.0
2017-Jan-14 19:31N 53°23' W 003°00'0 0.0
2017-Jan-14 18:28N 53°23' W 003°00'0 0.0
2017-Jan-14 17:31N 53°23' W 003°00'0 0.0
2017-Jan-14 16:31N 53°23' W 003°00'0 0.0
2017-Jan-14 15:25N 53°23' W 003°00'0 0.0
2017-Jan-14 14:31N 53°23' W 003°00'0 0.0
2017-Jan-14 13:31N 53°23' W 003°00'0 0.2
2017-Jan-14 12:32N 53°23' W 002°60'4 3.9
2017-Jan-14 11:33N 53°26' W 003°01'9 8.7
2017-Jan-14 10:33N 53°31' W 003°14'7 6.8
2017-Jan-14 09:33N 53°28' W 003°03'2 1.5
2017-Jan-14 08:29N 53°27' W 003°01'2 2.0
2017-Jan-14 07:32N 53°25' W 003°00'0 0.0
2017-Jan-14 06:32N 53°25' W 003°00'0 0.0
2017-Jan-14 05:32N 53°25' W 003°00'0 0.0
2017-Jan-14 04:32N 53°25' W 003°00'0 0.0
2017-Jan-14 03:32N 53°25' W 003°00'0 0.0
2017-Jan-13 23:32N 53°25' W 003°00'0 0.0
2017-Jan-13 22:32N 53°25' W 003°00'0 0.0
2017-Jan-13 21:29N 53°25' W 003°00'1 1.0
2017-Jan-13 20:32N 53°26' W 003°01'4 3.6
2017-Jan-13 19:31N 53°23' W 002°60'0 0.1
2017-Jan-13 18:32N 53°23' W 002°60'0 0.0
2017-Jan-13 17:32N 53°23' W 002°60'0 0.0
2017-Jan-13 16:32N 53°23' W 002°60'0 0.0
2017-Jan-13 15:32N 53°23' W 002°60'0 0.0
2017-Jan-13 14:32N 53°23' W 002°60'0 0.3
2017-Jan-13 13:33N 53°23' W 002°60'1 1.3
2017-Jan-13 12:33N 53°24' W 003°00'2 1.4
2017-Jan-13 11:24N 53°23' W 002°60'0 0.0
2017-Jan-13 10:30N 53°23' W 002°60'0 0.0
2017-Jan-13 09:33N 53°23' W 002°60'0 0.0
2017-Jan-13 08:33N 53°23' W 002°60'0 0.0
2017-Jan-13 07:33N 53°23' W 002°60'1 1.4
2017-Jan-13 06:32N 53°24' W 003°01'1 1.3
2017-Jan-13 05:31N 53°23' W 002°60'0 0.0
2017-Jan-13 04:31N 53°23' W 002°60'0 0.0
2017-Jan-13 03:25N 53°23' W 002°60'0 0.0
2017-Jan-13 02:31N 53°23' W 002°60'0 0.0
2017-Jan-13 01:31N 53°23' W 002°60'0 0.0
2017-Jan-13 00:34N 53°23' W 002°60'0 0.0
2017-Jan-12 23:33N 53°23' W 002°60'0 0.0
2017-Jan-12 22:33N 53°23' W 002°60'0 0.0
2017-Jan-12 21:30N 53°23' W 002°60'0 0.0
2017-Jan-12 20:33N 53°23' W 002°60'0 0.0
2017-Jan-12 19:30N 53°23' W 002°60'0 0.0
2017-Jan-12 18:33N 53°23' W 002°60'0 0.0
2017-Jan-12 17:33N 53°23' W 002°60'0 0.0
2017-Jan-12 16:33N 53°23' W 002°60'0 0.0
2017-Jan-12 15:27N 53°23' W 002°60'0 0.0
2017-Jan-12 14:30N 53°23' W 002°60'0 0.0
2017-Jan-12 13:30N 53°23' W 002°60'0 0.0
2017-Jan-12 12:30N 53°23' W 002°60'0 0.0
2017-Jan-12 11:33N 53°23' W 002°60'1 0.6
2017-Jan-12 10:32N 53°23' W 003°00'8 8.3
2017-Jan-12 09:33N 53°31' W 003°06'1 0.8
2017-Jan-12 08:33N 53°31' W 003°07'8 8.3
2017-Jan-12 07:33N 53°24' W 003°00'1 1.2
2017-Jan-12 06:32N 53°23' W 002°60'0 0.2
2017-Jan-12 05:32N 53°23' W 002°60'0 0.0
2017-Jan-12 04:29N 53°23' W 002°60'0 0.0
2017-Jan-12 03:29N 53°23' W 002°60'0 0.0
2017-Jan-12 02:32N 53°23' W 002°60'0 0.0
2017-Jan-12 01:32N 53°23' W 002°60'0 0.0
2017-Jan-12 00:32N 53°23' W 002°60'0 0.0
2017-Jan-11 23:32N 53°23' W 002°60'0 0.0
2017-Jan-11 22:29N 53°23' W 002°60'0 0.0
2017-Jan-11 21:32N 53°23' W 002°60'0 0.0
2017-Jan-11 20:32N 53°23' W 002°60'0 0.0
2017-Jan-11 19:32N 53°23' W 002°60'0 0.0
2017-Jan-11 18:32N 53°23' W 002°60'0 0.0
2017-Jan-11 17:29N 53°23' W 002°60'0 0.0
2017-Jan-11 16:29N 53°23' W 002°60'0 0.0
2017-Jan-11 15:28N 53°23' W 002°60'0 0.0
2017-Jan-11 14:31N 53°23' W 002°60'0 0.0
2017-Jan-11 13:28N 53°23' W 002°60'0 0.2
2017-Jan-11 12:25N 53°23' W 002°60'0 0.0
2017-Jan-11 11:31N 53°23' W 002°60'0 0.2
2017-Jan-11 10:32N 53°23' W 003°00'6 5.6
2017-Jan-11 09:33N 53°28' W 003°04'9 9.1
2017-Jan-11 08:33N 53°32' W 003°17'7 7.1
2017-Jan-11 07:33N 53°30' W 003°06'7 6.5
2017-Jan-11 06:29N 53°24' W 003°01'1 1.4
2017-Jan-11 05:33N 53°23' W 003°00'0 0.0
2017-Jan-11 04:33N 53°23' W 003°00'0 0.0
2017-Jan-11 03:27N 53°23' W 003°00'0 0.0
2017-Jan-11 02:33N 53°23' W 003°00'0 0.0
2017-Jan-11 01:33N 53°23' W 003°00'0 0.0
2017-Jan-11 00:33N 53°23' W 003°00'  
Track history (hours):
 
Tides and Currents Weather Stations Pressure Air Temp Water Temp Dewpoint Dewpoint Depression Visibility Wind Speed Wind Dir Waves Ship Positions

Svitzer Stanlow

Last reported at 2017-Jan-20 23:33 UTC. Time now 2017-Jan-21 00:17 UTC.
Position N 53°23' W 003°00'.

Length 39 m.

Type: Tug. MMSI: 235010620.

Date/timePositionNaut miles runAvg speedWind from/ knotsBaromVisibWave heightAir tempDewpointWater temp
2017-Jan-20 23:33N 53°23' W 003°00'0 0.0
2017-Jan-20 22:33N 53°23' W 003°00'0 0.0
2017-Jan-20 21:33N 53°23' W 003°00'0 0.0
2017-Jan-20 20:33N 53°23' W 003°00'0 0.0
2017-Jan-20 19:33N 53°23' W 003°00'0 0.0
2017-Jan-20 18:33N 53°23' W 003°00'0 0.0
2017-Jan-20 17:33N 53°23' W 003°00'0 0.0
2017-Jan-20 16:24N 53°23' W 003°00'0 0.0
2017-Jan-20 15:33N 53°23' W 003°00'0 0.0
2017-Jan-20 14:33N 53°23' W 003°00'0 0.0
2017-Jan-20 13:33N 53°23' W 003°00'0 0.1
2017-Jan-20 12:33N 53°23' W 002°60'0 0.0
2017-Jan-20 11:33N 53°23' W 002°60'0 0.0
2017-Jan-20 10:33N 53°23' W 002°60'0 0.0
2017-Jan-20 09:24N 53°23' W 002°60'0 0.0
2017-Jan-20 08:30N 53°23' W 002°60'0 0.0
2017-Jan-20 07:27N 53°23' W 002°60'0 0.0
2017-Jan-20 06:33N 53°23' W 002°60'0 0.1
2017-Jan-20 05:29N 53°23' W 002°60'4 3.9
2017-Jan-20 04:33N 53°26' W 003°01'8 7.9
2017-Jan-20 03:33N 53°32' W 003°11'3 3.2
2017-Jan-20 02:33N 53°32' W 003°17'6 6.4
2017-Jan-20 01:32N 53°31' W 003°06'9 8.5
2017-Jan-20 00:30N 53°23' W 002°60'0 0.0
2017-Jan-19 23:33N 53°23' W 002°60'0 0.0
2017-Jan-19 22:33N 53°23' W 002°60'0 0.0
2017-Jan-19 21:33N 53°23' W 002°60'0 0.0
2017-Jan-19 20:33N 53°23' W 002°60'0 0.0
2017-Jan-19 19:33N 53°23' W 002°60'0 0.0
2017-Jan-19 18:30N 53°23' W 002°60'0 0.0
2017-Jan-19 17:33N 53°23' W 002°60'0 0.0
2017-Jan-19 16:33N 53°23' W 002°60'0 0.0
2017-Jan-19 15:27N 53°23' W 002°60'0 0.0
2017-Jan-19 14:33N 53°23' W 002°60'0 0.0
2017-Jan-19 13:30N 53°23' W 002°60'0 0.0
2017-Jan-19 12:32N 53°23' W 002°60'0 0.0
2017-Jan-19 11:29N 53°23' W 002°60'0 0.0
2017-Jan-19 10:29N 53°23' W 002°60'0 0.0
2017-Jan-19 09:29N 53°23' W 002°60'0 0.0
2017-Jan-19 08:32N 53°23' W 002°60'0 0.0
2017-Jan-19 07:29N 53°23' W 002°60'0 0.0
2017-Jan-19 06:29N 53°23' W 002°60'0 0.0
2017-Jan-19 05:32N 53°23' W 002°60'0 0.0
2017-Jan-19 04:32N 53°23' W 002°60'1 0.5
2017-Jan-19 03:32N 53°23' W 003°00'5 4.9
2017-Jan-19 02:33N 53°28' W 003°03'9 9.2
2017-Jan-19 01:33N 53°32' W 003°17'9 8.7
2017-Jan-19 00:33N 53°28' W 003°03'4 4.2
2017-Jan-18 23:31N 53°24' W 002°60'0 0.0
2017-Jan-18 22:31N 53°24' W 002°60'0 0.0
2017-Jan-18 21:31N 53°24' W 002°60'0 0.0
2017-Jan-18 20:31N 53°24' W 002°60'0 0.0
2017-Jan-18 19:31N 53°24' W 002°60'0 0.0
2017-Jan-18 18:31N 53°24' W 002°60'0 0.0
2017-Jan-18 17:31N 53°24' W 002°60'0 0.0
2017-Jan-18 16:28N 53°24' W 002°60'3 2.7
2017-Jan-18 15:26N 53°27' W 003°01'1 0.6
2017-Jan-18 14:32N 53°28' W 003°01'0 0.3
2017-Jan-18 13:22N 53°28' W 003°01'1 1.4
2017-Jan-18 12:32N 53°27' W 003°00'0 0.2
2017-Jan-18 11:30N 53°26' W 003°00'1 0.8
2017-Jan-18 10:27N 53°25' W 003°00'0 0.0
2017-Jan-18 09:33N 53°25' W 003°00'0 0.0
2017-Jan-18 08:33N 53°25' W 003°00'0 0.0
2017-Jan-18 07:33N 53°25' W 003°00'0 0.0
2017-Jan-18 06:33N 53°25' W 003°00'0 0.0
2017-Jan-18 05:33N 53°25' W 003°00'0 0.0
2017-Jan-18 04:32N 53°25' W 003°00'0 0.0
2017-Jan-18 03:32N 53°25' W 003°00'0 0.0
2017-Jan-18 02:32N 53°25' W 003°00'2 1.8
2017-Jan-18 01:32N 53°27' W 003°01'1 0.9
2017-Jan-18 00:33N 53°26' W 003°00'1 0.9
2017-Jan-17 23:30N 53°25' W 003°00'0 0.0
2017-Jan-17 22:30N 53°25' W 003°00'0 0.0
2017-Jan-17 21:30N 53°25' W 003°00'0 0.0
2017-Jan-17 20:30N 53°25' W 003°00'0 0.0
2017-Jan-17 19:30N 53°25' W 003°00'0 0.0
2017-Jan-17 18:27N 53°25' W 003°00'0 0.0
2017-Jan-17 17:30N 53°25' W 003°00'0 0.0
2017-Jan-17 16:33N 53°25' W 003°00'0 0.0
2017-Jan-17 15:33N 53°25' W 003°00'0 0.0
2017-Jan-17 14:30N 53°25' W 003°00'0 0.0
2017-Jan-17 13:33N 53°25' W 003°00'0 0.0
2017-Jan-17 12:31N 53°25' W 003°00'0 0.3
2017-Jan-17 11:33N 53°26' W 003°00'2 1.7
2017-Jan-17 10:33N 53°27' W 003°01'0 0.3
2017-Jan-17 09:31N 53°27' W 003°01'0 0.0
2017-Jan-17 08:31N 53°27' W 003°01'0 0.0
2017-Jan-17 07:31N 53°27' W 003°01'0 0.0
2017-Jan-17 06:28N 53°27' W 003°01'0 0.0
2017-Jan-17 05:31N 53°27' W 003°01'0 0.0
2017-Jan-17 04:31N 53°27' W 003°01'0 0.0
2017-Jan-17 03:28N 53°27' W 003°01'0 0.0
2017-Jan-17 02:31N 53°27' W 003°01'0 0.0
2017-Jan-17 01:31N 53°27' W 003°01'0 0.3
2017-Jan-17 00:32N 53°27' W 003°01'0 0.1
2017-Jan-16 23:33N 53°27' W 003°01'2 1.6
2017-Jan-16 22:33N 53°26' W 003°00'0 0.1
2017-Jan-16 21:31N 53°25' W 003°00'0 0.0
2017-Jan-16 20:31N 53°25' W 003°00'0 0.0
2017-Jan-16 19:28N 53°25' W 003°00'0 0.0
2017-Jan-16 18:31N 53°25' W 003°00'0 0.0
2017-Jan-16 17:31N 53°25' W 003°00'0 0.0
2017-Jan-16 16:31N 53°25' W 003°00'0 0.0
2017-Jan-16 15:31N 53°25' W 003°00'0 0.0
2017-Jan-16 14:25N 53°25' W 003°00'0 0.0
2017-Jan-16 13:31N 53°25' W 003°00'0 0.0
2017-Jan-16 12:31N 53°25' W 003°00'0 0.0
2017-Jan-16 11:34N 53°25' W 003°00'0 0.0
2017-Jan-16 10:34N 53°25' W 003°00'0 0.0
2017-Jan-16 09:33N 53°25' W 003°00'0 0.0
2017-Jan-16 08:33N 53°25' W 003°00'0 0.0
2017-Jan-16 07:33N 53°25' W 003°00'0 0.0
2017-Jan-16 06:30N 53°25' W 003°00'0 0.0
2017-Jan-16 05:33N 53°25' W 003°00'0 0.0
2017-Jan-16 04:30N 53°25' W 003°00'0 0.0
2017-Jan-16 03:33N 53°25' W 003°00'0 0.0
2017-Jan-16 02:27N 53°25' W 003°00'0 0.0
2017-Jan-16 01:33N 53°25' W 003°00'0 0.0
2017-Jan-16 00:33N 53°25' W 003°00'0 0.0
2017-Jan-15 23:33N 53°25' W 003°00'2 1.6
2017-Jan-15 22:33N 53°27' W 003°01'3 2.8
2017-Jan-15 21:33N 53°24' W 003°00'1 1.4
2017-Jan-15 20:32N 53°23' W 003°00'0 0.0
2017-Jan-15 19:23N 53°23' W 003°00'0 0.0
2017-Jan-15 18:32N 53°23' W 003°00'0 0.0
2017-Jan-15 17:32N 53°23' W 003°00'0 0.0
2017-Jan-15 16:32N 53°23' W 003°00'0 0.0
2017-Jan-15 15:23N 53°23' W 003°00'0 0.0
2017-Jan-15 14:29N 53°23' W 003°00'0 0.0
2017-Jan-15 13:32N 53°23' W 003°00'0 0.0
2017-Jan-15 12:32N 53°23' W 003°00'0 0.0
2017-Jan-15 11:25N 53°23' W 003°00'0 0.0
2017-Jan-15 10:31N 53°23' W 003°00'0 0.0
2017-Jan-15 09:31N 53°23' W 003°00'0 0.0
2017-Jan-15 08:28N 53°23' W 003°00'0 0.0
2017-Jan-15 07:31N 53°23' W 003°00'0 0.0
2017-Jan-15 06:28N 53°23' W 003°00'0 0.0
2017-Jan-15 05:31N 53°23' W 003°00'0 0.0
2017-Jan-15 04:31N 53°23' W 003°00'0 0.0
2017-Jan-15 03:31N 53°23' W 003°00'0 0.0
2017-Jan-15 02:28N 53°23' W 003°00'0 0.0
2017-Jan-15 01:31N 53°23' W 003°00'0 0.0
2017-Jan-15 00:31N 53°23' W 003°00'0 0.0
2017-Jan-14 23:25N 53°23' W 003°00'0 0.0
2017-Jan-14 22:31N 53°23' W 003°00'0 0.0
2017-Jan-14 21:28N 53°23' W 003°00'0 0.0
2017-Jan-14 20:31N 53°23' W 003°00'0 0.0
2017-Jan-14 19:31N 53°23' W 003°00'0 0.0
2017-Jan-14 18:28N 53°23' W 003°00'0 0.0
2017-Jan-14 17:31N 53°23' W 003°00'0 0.0
2017-Jan-14 16:31N 53°23' W 003°00'0 0.0
2017-Jan-14 15:25N 53°23' W 003°00'0 0.0
2017-Jan-14 14:31N 53°23' W 003°00'0 0.0
2017-Jan-14 13:31N 53°23' W 003°00'0 0.2
2017-Jan-14 12:32N 53°23' W 002°60'4 3.9
2017-Jan-14 11:33N 53°26' W 003°01'9 8.7
2017-Jan-14 10:33N 53°31' W 003°14'7 6.8
2017-Jan-14 09:33N 53°28' W 003°03'2 1.5
2017-Jan-14 08:29N 53°27' W 003°01'2 2.0
2017-Jan-14 07:32N 53°25' W 003°00'0 0.0
2017-Jan-14 06:32N 53°25' W 003°00'0 0.0
2017-Jan-14 05:32N 53°25' W 003°00'0 0.0
2017-Jan-14 04:32N 53°25' W 003°00'0 0.0
2017-Jan-14 03:32N 53°25' W 003°00'0 0.0
2017-Jan-13 23:32N 53°25' W 003°00'0 0.0
2017-Jan-13 22:32N 53°25' W 003°00'0 0.0
2017-Jan-13 21:29N 53°25' W 003°00'1 1.0
2017-Jan-13 20:32N 53°26' W 003°01'4 3.6
2017-Jan-13 19:31N 53°23' W 002°60'0 0.1
2017-Jan-13 18:32N 53°23' W 002°60'0 0.0
2017-Jan-13 17:32N 53°23' W 002°60'0 0.0
2017-Jan-13 16:32N 53°23' W 002°60'0 0.0
2017-Jan-13 15:32N 53°23' W 002°60'0 0.0
2017-Jan-13 14:32N 53°23' W 002°60'0 0.3
2017-Jan-13 13:33N 53°23' W 002°60'1 1.3
2017-Jan-13 12:33N 53°24' W 003°00'2 1.4
2017-Jan-13 11:24N 53°23' W 002°60'0 0.0
2017-Jan-13 10:30N 53°23' W 002°60'0 0.0
2017-Jan-13 09:33N 53°23' W 002°60'0 0.0
2017-Jan-13 08:33N 53°23' W 002°60'0 0.0
2017-Jan-13 07:33N 53°23' W 002°60'1 1.4
2017-Jan-13 06:32N 53°24' W 003°01'1 1.3
2017-Jan-13 05:31N 53°23' W 002°60'0 0.0
2017-Jan-13 04:31N 53°23' W 002°60'0 0.0
2017-Jan-13 03:25N 53°23' W 002°60'0 0.0
2017-Jan-13 02:31N 53°23' W 002°60'0 0.0
2017-Jan-13 01:31N 53°23' W 002°60'0 0.0
2017-Jan-13 00:34N 53°23' W 002°60'0 0.0
2017-Jan-12 23:33N 53°23' W 002°60'0 0.0
2017-Jan-12 22:33N 53°23' W 002°60'0 0.0
2017-Jan-12 21:30N 53°23' W 002°60'0 0.0
2017-Jan-12 20:33N 53°23' W 002°60'0 0.0
2017-Jan-12 19:30N 53°23' W 002°60'0 0.0
2017-Jan-12 18:33N 53°23' W 002°60'0 0.0
2017-Jan-12 17:33N 53°23' W 002°60'0 0.0
2017-Jan-12 16:33N 53°23' W 002°60'0 0.0
2017-Jan-12 15:27N 53°23' W 002°60'0 0.0
2017-Jan-12 14:30N 53°23' W 002°60'0 0.0
2017-Jan-12 13:30N 53°23' W 002°60'0 0.0
2017-Jan-12 12:30N 53°23' W 002°60'0 0.0
2017-Jan-12 11:33N 53°23' W 002°60'1 0.6
2017-Jan-12 10:32N 53°23' W 003°00'8 8.3
2017-Jan-12 09:33N 53°31' W 003°06'1 0.8
2017-Jan-12 08:33N 53°31' W 003°07'8 8.3
2017-Jan-12 07:33N 53°24' W 003°00'1 1.2
2017-Jan-12 06:32N 53°23' W 002°60'0 0.2
2017-Jan-12 05:32N 53°23' W 002°60'0 0.0
2017-Jan-12 04:29N 53°23' W 002°60'0 0.0
2017-Jan-12 03:29N 53°23' W 002°60'0 0.0
2017-Jan-12 02:32N 53°23' W 002°60'0 0.0
2017-Jan-12 01:32N 53°23' W 002°60'0 0.0
2017-Jan-12 00:32N 53°23' W 002°60'0 0.0
2017-Jan-11 23:32N 53°23' W 002°60'0 0.0
2017-Jan-11 22:29N 53°23' W 002°60'0 0.0
2017-Jan-11 21:32N 53°23' W 002°60'0 0.0
2017-Jan-11 20:32N 53°23' W 002°60'0 0.0
2017-Jan-11 19:32N 53°23' W 002°60'0 0.0
2017-Jan-11 18:32N 53°23' W 002°60'0 0.0
2017-Jan-11 17:29N 53°23' W 002°60'0 0.0
2017-Jan-11 16:29N 53°23' W 002°60'0 0.0
2017-Jan-11 15:28N 53°23' W 002°60'0 0.0
2017-Jan-11 14:31N 53°23' W 002°60'0 0.0
2017-Jan-11 13:28N 53°23' W 002°60'0 0.2
2017-Jan-11 12:25N 53°23' W 002°60'0 0.0
2017-Jan-11 11:31N 53°23' W 002°60'0 0.2
2017-Jan-11 10:32N 53°23' W 003°00'6 5.6
2017-Jan-11 09:33N 53°28' W 003°04'9 9.1
2017-Jan-11 08:33N 53°32' W 003°17'7 7.1
2017-Jan-11 07:33N 53°30' W 003°06'7 6.5
2017-Jan-11 06:29N 53°24' W 003°01'1 1.4
2017-Jan-11 05:33N 53°23' W 003°00'0 0.0
2017-Jan-11 04:33N 53°23' W 003°00'0 0.0
2017-Jan-11 03:27N 53°23' W 003°00'0 0.0
2017-Jan-11 02:33N 53°23' W 003°00'0 0.0
2017-Jan-11 01:33N 53°23' W 003°00'0 0.0
2017-Jan-11 00:33N 53°23' W 003°00'  

Dump ship's entire track history